createdAt,value
2018-02-12T00:00:36.836Z,39.66
2018-02-12T00:01:36.838Z,39.55
2018-02-12T00:02:36.843Z,39.49
2018-02-12T00:03:36.817Z,39.54
2018-02-12T00:04:36.833Z,39.56
2018-02-12T00:05:36.862Z,39.55
2018-02-12T00:06:36.869Z,39.63
2018-02-12T00:07:36.843Z,39.57
2018-02-12T00:08:36.831Z,39.52
2018-02-12T00:09:36.865Z,39.59
2018-02-12T00:10:36.830Z,39.54
2018-02-12T00:11:36.824Z,39.46
2018-02-12T00:12:36.871Z,39.58
2018-02-12T00:13:36.841Z,39.66
2018-02-12T00:14:36.858Z,39.51
2018-02-12T00:15:36.826Z,39.63
2018-02-12T00:16:36.818Z,39.53
2018-02-12T00:17:36.834Z,39.6
2018-02-12T00:18:36.842Z,39.61
2018-02-12T00:19:36.824Z,39.68
2018-02-12T00:20:36.834Z,39.61
2018-02-12T00:21:36.853Z,39.54
2018-02-12T00:22:36.867Z,39.54
2018-02-12T00:23:36.843Z,39.56
2018-02-12T00:24:36.862Z,39.74
2018-02-12T00:25:36.823Z,39.66
2018-02-12T00:26:36.819Z,39.61
2018-02-12T00:27:36.833Z,39.63
2018-02-12T00:28:36.827Z,39.53
2018-02-12T00:29:36.827Z,39.51
2018-02-12T00:30:36.820Z,39.61
2018-02-12T00:31:36.817Z,39.6
2018-02-12T00:32:37.095Z,39.59
2018-02-12T00:33:36.818Z,39.57
2018-02-12T00:34:36.824Z,39.61
2018-02-12T00:35:36.828Z,39.62
2018-02-12T00:36:36.822Z,39.58
2018-02-12T00:37:36.884Z,39.54
2018-02-12T00:38:36.828Z,39.65
2018-02-12T00:39:36.823Z,39.63
2018-02-12T00:40:36.846Z,39.6
2018-02-12T00:41:36.823Z,39.57
2018-02-12T00:42:36.858Z,39.64
2018-02-12T00:43:36.798Z,39.6
2018-02-12T00:44:36.806Z,39.68
2018-02-12T00:45:36.824Z,39.65
2018-02-12T00:46:36.778Z,39.6
2018-02-12T00:47:36.878Z,39.58
2018-02-12T00:48:36.816Z,39.53
2018-02-12T00:49:36.831Z,39.51
2018-02-12T00:50:36.781Z,39.55
2018-02-12T00:51:36.893Z,39.63
2018-02-12T00:52:36.827Z,39.54
2018-02-12T00:53:36.922Z,39.53
2018-02-12T00:54:36.816Z,39.62
2018-02-12T00:55:36.802Z,39.61
2018-02-12T00:56:36.802Z,39.57
2018-02-12T00:57:36.850Z,39.63
2018-02-12T00:58:36.807Z,39.67
2018-02-12T00:59:36.814Z,39.57
2018-02-12T01:00:36.836Z,39.63
2018-02-12T01:01:36.819Z,39.62
2018-02-12T01:02:36.807Z,39.62
2018-02-12T01:03:36.818Z,39.64
2018-02-12T01:04:36.822Z,39.62
2018-02-12T01:05:36.815Z,39.63
2018-02-12T01:06:36.819Z,39.58
2018-02-12T01:07:36.809Z,39.69
2018-02-12T01:08:36.844Z,39.64
2018-02-12T01:09:36.877Z,39.68
2018-02-12T01:10:36.810Z,39.63
2018-02-12T01:11:36.805Z,39.61
2018-02-12T01:12:36.812Z,39.57
2018-02-12T01:13:36.865Z,39.61
2018-02-12T01:14:36.854Z,39.48
2018-02-12T01:15:36.805Z,39.57
2018-02-12T01:16:36.813Z,39.64
2018-02-12T01:17:36.795Z,39.53
2018-02-12T01:18:36.826Z,39.58
2018-02-12T01:19:36.845Z,39.54
2018-02-12T01:20:36.811Z,39.59
2018-02-12T01:21:36.812Z,39.54
2018-02-12T01:22:36.815Z,39.57
2018-02-12T01:23:36.801Z,39.58
2018-02-12T01:24:36.798Z,39.61
2018-02-12T01:25:36.810Z,39.61
2018-02-12T01:26:36.803Z,39.61
2018-02-12T01:27:36.809Z,39.58
2018-02-12T01:28:36.796Z,39.7
2018-02-12T01:29:36.808Z,39.62
2018-02-12T01:30:36.811Z,39.66
2018-02-12T01:31:36.820Z,39.54
2018-02-12T01:32:36.807Z,39.56
2018-02-12T01:33:36.850Z,39.69
2018-02-12T01:34:36.814Z,39.7
2018-02-12T01:35:36.872Z,39.65
2018-02-12T01:36:36.771Z,39.59
2018-02-12T01:37:36.800Z,39.58
2018-02-12T01:38:36.842Z,39.6
2018-02-12T01:39:36.841Z,39.6
2018-02-12T01:40:36.825Z,39.57
2018-02-12T01:41:36.814Z,39.65
2018-02-12T01:42:36.803Z,39.63
2018-02-12T01:43:36.910Z,39.71
2018-02-12T01:44:36.819Z,39.6
2018-02-12T01:45:36.804Z,39.57
2018-02-12T01:46:36.810Z,39.64
2018-02-12T01:47:36.797Z,39.65
2018-02-12T01:48:36.841Z,39.55
2018-02-12T01:49:36.822Z,39.6
2018-02-12T01:50:36.800Z,39.58
2018-02-12T01:51:36.798Z,39.68
2018-02-12T01:52:36.796Z,39.66
2018-02-12T01:53:36.794Z,39.63
2018-02-12T01:54:36.835Z,39.65
2018-02-12T01:55:36.804Z,39.69
2018-02-12T01:56:36.800Z,39.63
2018-02-12T01:57:36.796Z,39.66
2018-02-12T01:58:36.832Z,39.69
2018-02-12T01:59:36.786Z,39.6
2018-02-12T02:00:36.785Z,39.55
2018-02-12T02:01:36.796Z,39.71
2018-02-12T02:02:36.791Z,39.62
2018-02-12T02:03:36.811Z,39.67
2018-02-12T02:04:36.804Z,39.65
2018-02-12T02:05:36.812Z,39.71
2018-02-12T02:06:36.802Z,39.64
2018-02-12T02:07:36.787Z,39.62
2018-02-12T02:08:36.798Z,39.66
2018-02-12T02:09:36.797Z,39.61
2018-02-12T02:10:36.805Z,39.65
2018-02-12T02:11:36.791Z,39.67
2018-02-12T02:12:36.816Z,39.62
2018-02-12T02:13:36.792Z,39.59
2018-02-12T02:14:36.841Z,39.61
2018-02-12T02:15:36.805Z,39.67
2018-02-12T02:16:36.799Z,39.64
2018-02-12T02:17:36.817Z,39.63
2018-02-12T02:18:36.804Z,39.65
2018-02-12T02:19:36.813Z,39.63
2018-02-12T02:20:36.779Z,39.65
2018-02-12T02:21:36.780Z,39.65
2018-02-12T02:22:36.815Z,39.66
2018-02-12T02:23:36.798Z,39.66
2018-02-12T02:24:36.791Z,39.63
2018-02-12T02:25:36.780Z,39.62
2018-02-12T02:26:36.794Z,39.64
2018-02-12T02:27:36.793Z,39.63
2018-02-12T02:28:36.784Z,39.57
2018-02-12T02:29:36.840Z,39.67
2018-02-12T02:30:36.808Z,39.62
2018-02-12T02:31:36.824Z,39.64
2018-02-12T02:32:36.776Z,39.74
2018-02-12T02:33:36.789Z,39.66
2018-02-12T02:34:36.832Z,39.72
2018-02-12T02:35:36.808Z,39.7
2018-02-12T02:36:36.787Z,39.69
2018-02-12T02:37:36.784Z,39.63
2018-02-12T02:38:36.775Z,39.67
2018-02-12T02:39:36.813Z,39.65
2018-02-12T02:40:36.785Z,39.65
2018-02-12T02:41:36.776Z,39.71
2018-02-12T02:42:36.776Z,39.61
2018-02-12T02:43:36.784Z,39.56
2018-02-12T02:44:36.793Z,39.62
2018-02-12T02:45:36.797Z,39.65
2018-02-12T02:46:36.757Z,39.58
2018-02-12T02:47:36.786Z,39.65
2018-02-12T02:48:36.789Z,39.64
2018-02-12T02:49:36.775Z,39.66
2018-02-12T02:50:36.826Z,39.69
2018-02-12T02:51:36.749Z,39.63
2018-02-12T02:52:36.770Z,39.7
2018-02-12T02:53:36.866Z,39.62
2018-02-12T02:54:36.854Z,39.69
2018-02-12T02:55:36.987Z,39.65
2018-02-12T02:56:36.786Z,39.62
2018-02-12T02:57:36.816Z,39.67
2018-02-12T02:58:36.823Z,39.65
2018-02-12T02:59:36.793Z,39.7
2018-02-12T03:00:36.819Z,39.67
2018-02-12T03:01:36.776Z,39.75
2018-02-12T03:02:36.770Z,39.73
2018-02-12T03:03:36.803Z,39.68
2018-02-12T03:04:36.837Z,39.73
2018-02-12T03:05:36.777Z,39.74
2018-02-12T03:06:36.764Z,39.72
2018-02-12T03:07:36.785Z,39.63
2018-02-12T03:08:36.817Z,39.8
2018-02-12T03:09:36.772Z,39.75
2018-02-12T03:10:36.781Z,39.72
2018-02-12T03:11:36.776Z,39.74
2018-02-12T03:12:36.768Z,39.73
2018-02-12T03:13:36.780Z,39.69
2018-02-12T03:14:36.801Z,39.83
2018-02-12T03:15:36.789Z,39.71
2018-02-12T03:16:36.752Z,39.73
2018-02-12T03:17:36.787Z,39.79
2018-02-12T03:18:36.759Z,39.76
2018-02-12T03:19:36.792Z,39.78
2018-02-12T03:20:36.763Z,39.84
2018-02-12T03:21:36.777Z,39.76
2018-02-12T03:22:36.757Z,39.79
2018-02-12T03:23:36.751Z,39.76
2018-02-12T03:24:36.723Z,39.82
2018-02-12T03:25:36.768Z,39.73
2018-02-12T03:26:36.796Z,39.85
2018-02-12T03:27:36.737Z,39.75
2018-02-12T03:28:36.743Z,39.76
2018-02-12T03:29:36.779Z,39.69
2018-02-12T03:30:36.776Z,39.74
2018-02-12T03:31:36.760Z,39.7
2018-02-12T03:32:36.779Z,39.64
2018-02-12T03:33:36.786Z,39.71
2018-02-12T03:34:36.748Z,39.69
2018-02-12T03:35:36.776Z,39.73
2018-02-12T03:36:36.768Z,39.73
2018-02-12T03:37:36.793Z,39.76
2018-02-12T03:38:36.762Z,39.8
2018-02-12T03:39:36.773Z,39.7
2018-02-12T03:40:36.767Z,39.84
2018-02-12T03:41:36.778Z,39.86
2018-02-12T03:42:36.748Z,39.81
2018-02-12T03:43:36.749Z,39.8
2018-02-12T03:44:36.764Z,39.82
2018-02-12T03:45:36.769Z,39.83
2018-02-12T03:46:36.786Z,39.74
2018-02-12T03:47:36.763Z,39.77
2018-02-12T03:48:36.775Z,39.76
2018-02-12T03:49:36.766Z,39.85
2018-02-12T03:50:36.733Z,39.76
2018-02-12T03:51:36.768Z,39.71
2018-02-12T03:52:36.750Z,39.74
2018-02-12T03:53:36.815Z,39.74
2018-02-12T03:54:36.747Z,39.74
2018-02-12T03:55:36.756Z,39.71
2018-02-12T03:56:36.761Z,39.76
2018-02-12T03:57:36.755Z,39.8
2018-02-12T03:58:36.750Z,39.79
2018-02-12T03:59:36.788Z,39.75
2018-02-12T04:00:36.750Z,39.79
2018-02-12T04:01:36.744Z,39.66
2018-02-12T04:02:36.776Z,39.69
2018-02-12T04:03:36.740Z,39.69
2018-02-12T04:04:36.766Z,39.75
2018-02-12T04:05:36.765Z,39.71
2018-02-12T04:06:36.748Z,39.75
2018-02-12T04:07:36.752Z,39.69
2018-02-12T04:08:36.740Z,39.83
2018-02-12T04:09:36.837Z,39.73
2018-02-12T04:10:36.736Z,39.79
2018-02-12T04:11:36.731Z,39.75
2018-02-12T04:12:36.792Z,39.77
2018-02-12T04:13:36.753Z,39.79
2018-02-12T04:14:36.769Z,39.7
2018-02-12T04:15:36.854Z,39.74
2018-02-12T04:16:36.764Z,39.66
2018-02-12T04:17:36.795Z,39.75
2018-02-12T04:18:36.760Z,39.72
2018-02-12T04:19:36.749Z,39.79
2018-02-12T04:20:36.763Z,39.81
2018-02-12T04:21:36.725Z,39.78
2018-02-12T04:22:36.750Z,39.79
2018-02-12T04:23:36.760Z,39.84
2018-02-12T04:24:36.779Z,39.8
2018-02-12T04:25:36.756Z,39.79
2018-02-12T04:26:36.733Z,39.88
2018-02-12T04:27:36.737Z,39.83
2018-02-12T04:28:36.768Z,39.76
2018-02-12T04:29:36.761Z,39.81
2018-02-12T04:30:37.012Z,39.73
2018-02-12T04:31:36.871Z,39.79
2018-02-12T04:32:36.765Z,39.75
2018-02-12T04:33:36.762Z,39.75
2018-02-12T04:34:36.767Z,39.79
2018-02-12T04:35:36.771Z,39.78
2018-02-12T04:36:36.836Z,39.86
2018-02-12T04:37:36.769Z,39.84
2018-02-12T04:38:36.747Z,39.81
2018-02-12T04:39:36.837Z,39.77
2018-02-12T04:40:36.726Z,39.77
2018-02-12T04:41:36.760Z,39.7
2018-02-12T04:42:36.728Z,39.81
2018-02-12T04:43:36.732Z,39.71
2018-02-12T04:44:36.728Z,39.77
2018-02-12T04:45:36.758Z,39.76
2018-02-12T04:46:36.760Z,39.81
2018-02-12T04:47:36.832Z,39.79
2018-02-12T04:48:36.701Z,39.79
2018-02-12T04:49:36.745Z,39.79
2018-02-12T04:50:36.750Z,39.77
2018-02-12T04:51:36.782Z,39.75
2018-02-12T04:52:36.734Z,39.76
2018-02-12T04:53:36.726Z,39.81
2018-02-12T04:54:36.843Z,39.78
2018-02-12T04:55:36.984Z,39.72
2018-02-12T04:56:36.725Z,39.83
2018-02-12T04:57:36.754Z,39.79
2018-02-12T04:58:36.738Z,39.81
2018-02-12T04:59:36.748Z,39.76
2018-02-12T05:00:36.733Z,39.76
2018-02-12T05:01:36.717Z,39.73
2018-02-12T05:02:36.720Z,39.73
2018-02-12T05:03:36.945Z,39.73
2018-02-12T05:04:36.740Z,39.74
2018-02-12T05:05:36.810Z,39.71
2018-02-12T05:06:36.760Z,39.74
2018-02-12T05:07:36.727Z,39.65
2018-02-12T05:08:36.756Z,39.71
2018-02-12T05:09:36.738Z,39.7
2018-02-12T05:10:36.771Z,39.67
2018-02-12T05:11:36.847Z,39.66
2018-02-12T05:12:36.728Z,39.82
2018-02-12T05:13:36.727Z,39.76
2018-02-12T05:14:36.722Z,39.74
2018-02-12T05:15:36.810Z,39.86
2018-02-12T05:16:36.749Z,39.72
2018-02-12T05:17:36.721Z,39.73
2018-02-12T05:18:36.729Z,39.82
2018-02-12T05:19:36.795Z,39.74
2018-02-12T05:20:36.729Z,39.74
2018-02-12T05:21:36.715Z,39.81
2018-02-12T05:22:36.730Z,39.8
2018-02-12T05:23:36.725Z,39.82
2018-02-12T05:24:36.717Z,39.8
2018-02-12T05:25:36.728Z,39.8
2018-02-12T05:26:36.760Z,39.81
2018-02-12T05:27:36.693Z,39.77
2018-02-12T05:28:36.720Z,39.78
2018-02-12T05:29:36.748Z,39.76
2018-02-12T05:30:36.726Z,39.72
2018-02-12T05:31:36.759Z,39.72
2018-02-12T05:32:36.745Z,39.7
2018-02-12T05:33:36.713Z,39.67
2018-02-12T05:34:36.732Z,39.69
2018-02-12T05:35:36.717Z,39.68
2018-02-12T05:36:36.718Z,39.68
2018-02-12T05:37:36.733Z,39.67
2018-02-12T05:38:36.715Z,39.67
2018-02-12T05:39:36.714Z,39.65
2018-02-12T05:40:36.718Z,39.68
2018-02-12T05:41:36.779Z,39.63
2018-02-12T05:42:36.769Z,39.68
2018-02-12T05:43:36.718Z,39.69
2018-02-12T05:44:36.721Z,39.63
2018-02-12T05:45:36.732Z,39.67
2018-02-12T05:46:36.727Z,39.68
2018-02-12T05:47:36.719Z,39.71
2018-02-12T05:48:36.721Z,39.68
2018-02-12T05:49:36.714Z,39.65
2018-02-12T05:50:36.712Z,39.72
2018-02-12T05:51:36.739Z,39.74
2018-02-12T05:52:36.710Z,39.72
2018-02-12T05:53:36.712Z,39.71
2018-02-12T05:54:36.708Z,39.69
2018-02-12T05:55:36.700Z,39.64
2018-02-12T05:56:36.768Z,39.71
2018-02-12T05:57:36.711Z,39.64
2018-02-12T05:58:36.712Z,39.69
2018-02-12T05:59:36.716Z,39.67
2018-02-12T06:00:36.723Z,39.66
2018-02-12T06:01:36.721Z,39.67
2018-02-12T06:02:36.750Z,39.68
2018-02-12T06:03:36.702Z,39.62
2018-02-12T06:04:36.725Z,39.67
2018-02-12T06:05:36.697Z,39.64
2018-02-12T06:06:36.735Z,39.69
2018-02-12T06:07:36.740Z,39.71
2018-02-12T06:08:36.697Z,39.67
2018-02-12T06:09:36.705Z,39.69
2018-02-12T06:10:36.703Z,39.68
2018-02-12T06:11:36.705Z,39.63
2018-02-12T06:12:36.816Z,39.65
2018-02-12T06:13:36.746Z,39.63
2018-02-12T06:14:36.715Z,39.67
2018-02-12T06:15:36.558Z,39.64
2018-02-12T06:16:36.754Z,39.7
2018-02-12T06:17:36.716Z,39.6
2018-02-12T06:18:36.703Z,39.66
2018-02-12T06:19:36.709Z,39.63
2018-02-12T06:20:36.682Z,39.6
2018-02-12T06:21:36.717Z,39.58
2018-02-12T06:22:36.722Z,39.64
2018-02-12T06:23:36.712Z,39.61
2018-02-12T06:24:36.705Z,39.59
2018-02-12T06:25:36.737Z,39.57
2018-02-12T06:26:36.685Z,39.62
2018-02-12T06:27:36.715Z,39.59
2018-02-12T06:28:36.704Z,39.61
2018-02-12T06:29:36.732Z,39.59
2018-02-12T06:30:36.711Z,39.56
2018-02-12T06:31:36.703Z,39.58
2018-02-12T06:32:36.711Z,39.51
2018-02-12T06:33:36.731Z,39.57
2018-02-12T06:34:36.702Z,39.53
2018-02-12T06:35:36.703Z,39.56
2018-02-12T06:36:36.741Z,39.49
2018-02-12T06:37:36.712Z,39.5
2018-02-12T06:38:36.750Z,39.52
2018-02-12T06:39:36.733Z,39.48
2018-02-12T06:40:36.697Z,39.5
2018-02-12T06:41:36.712Z,39.52
2018-02-12T06:42:36.696Z,39.54
2018-02-12T06:43:36.699Z,39.53
2018-02-12T06:44:36.701Z,39.49
2018-02-12T06:45:36.699Z,39.48
2018-02-12T06:46:36.722Z,39.47
2018-02-12T06:47:36.713Z,39.52
2018-02-12T06:48:36.681Z,39.52
2018-02-12T06:49:36.682Z,39.47
2018-02-12T06:50:36.687Z,39.52
2018-02-12T06:51:36.736Z,39.42
2018-02-12T06:52:36.722Z,39.41
2018-02-12T06:53:36.693Z,39.38
2018-02-12T06:54:36.693Z,39.45
2018-02-12T06:55:36.796Z,39.41
2018-02-12T06:56:36.889Z,39.43
2018-02-12T06:57:36.691Z,39.4
2018-02-12T06:58:36.728Z,39.49
2018-02-12T06:59:36.744Z,39.42
2018-02-12T07:00:36.689Z,39.36
2018-02-12T07:01:36.695Z,39.38
2018-02-12T07:02:36.698Z,39.42
2018-02-12T07:03:36.658Z,39.37
2018-02-12T07:04:36.710Z,39.35
2018-02-12T07:05:36.695Z,39.4
2018-02-12T07:06:36.710Z,39.37
2018-02-12T07:07:36.962Z,39.39
2018-02-12T07:08:36.679Z,39.39
2018-02-12T07:09:36.689Z,39.39
2018-02-12T07:10:36.679Z,39.36
2018-02-12T07:11:36.663Z,39.35
2018-02-12T07:12:36.698Z,39.34
2018-02-12T07:13:36.733Z,39.33
2018-02-12T07:14:36.682Z,39.36
2018-02-12T07:15:36.689Z,39.27
2018-02-12T07:16:36.687Z,39.32
2018-02-12T07:17:36.680Z,39.37
2018-02-12T07:18:36.669Z,39.38
2018-02-12T07:19:36.781Z,39.31
2018-02-12T07:20:36.686Z,39.34
2018-02-12T07:21:36.684Z,39.26
2018-02-12T07:22:36.697Z,39.33
2018-02-12T07:23:36.714Z,39.31
2018-02-12T07:24:36.708Z,39.2
2018-02-12T07:25:36.673Z,39.24
2018-02-12T07:26:36.679Z,39.26
2018-02-12T07:27:36.687Z,39.22
2018-02-12T07:28:36.662Z,39.25
2018-02-12T07:29:36.668Z,39.24
2018-02-12T07:30:36.698Z,39.17
2018-02-12T07:31:36.680Z,39.25
2018-02-12T07:32:36.660Z,39.23
2018-02-12T07:33:36.692Z,39.23
2018-02-12T07:34:36.659Z,39.24
2018-02-12T07:35:36.698Z,39.23
2018-02-12T07:36:36.679Z,39.18
2018-02-12T07:37:36.697Z,39.23
2018-02-12T07:38:36.677Z,39.25
2018-02-12T07:39:36.677Z,39.23
2018-02-12T07:40:36.665Z,39.19
2018-02-12T07:41:36.692Z,39.24
2018-02-12T07:42:36.688Z,39.2
2018-02-12T07:43:36.805Z,39.16
2018-02-12T07:44:36.703Z,39.2
2018-02-12T07:45:36.672Z,39.17
2018-02-12T07:46:36.663Z,39.17
2018-02-12T07:47:36.692Z,39.17
2018-02-12T07:48:36.708Z,39.16
2018-02-12T07:49:36.673Z,39.15
2018-02-12T07:50:36.711Z,39.12
2018-02-12T07:51:36.673Z,39.18
2018-02-12T07:52:36.710Z,39.08
2018-02-12T07:53:36.690Z,39.14
2018-02-12T07:54:36.937Z,39.16
2018-02-12T07:55:36.662Z,39.08
2018-02-12T07:56:36.665Z,39.07
2018-02-12T07:57:36.676Z,39.15
2018-02-12T07:58:36.664Z,39.14
2018-02-12T07:59:36.687Z,39.1
2018-02-12T08:00:36.738Z,39.12
2018-02-12T08:01:36.672Z,39.07
2018-02-12T08:02:36.657Z,39.1
2018-02-12T08:03:36.676Z,39.08
2018-02-12T08:04:36.679Z,39.08
2018-02-12T08:05:36.686Z,38.99
2018-02-12T08:06:36.684Z,39.09
2018-02-12T08:07:36.697Z,39.06
2018-02-12T08:08:36.705Z,39.11
2018-02-12T08:09:36.687Z,39.07
2018-02-12T08:10:36.696Z,39.07
2018-02-12T08:11:36.661Z,39.09
2018-02-12T08:12:36.663Z,38.98
2018-02-12T08:13:36.646Z,39.09
2018-02-12T08:14:36.696Z,38.93
2018-02-12T08:15:36.689Z,38.97
2018-02-12T08:16:36.667Z,39.05
2018-02-12T08:17:36.665Z,38.94
2018-02-12T08:18:36.675Z,39.03
2018-02-12T08:19:36.674Z,39.04
2018-02-12T08:20:36.668Z,38.96
2018-02-12T08:21:36.698Z,38.99
2018-02-12T08:22:36.654Z,38.89
2018-02-12T08:23:36.744Z,39.03
2018-02-12T08:24:36.656Z,38.99
2018-02-12T08:25:36.680Z,38.84
2018-02-12T08:26:36.695Z,38.94
2018-02-12T08:27:36.657Z,38.98
2018-02-12T08:28:36.655Z,38.95
2018-02-12T08:29:36.656Z,38.99
2018-02-12T08:30:36.688Z,39
2018-02-12T08:31:36.654Z,38.96
2018-02-12T08:32:36.682Z,38.93
2018-02-12T08:33:36.653Z,38.95
2018-02-12T08:34:36.654Z,38.99
2018-02-12T08:35:36.688Z,38.94
2018-02-12T08:36:36.689Z,38.98
2018-02-12T08:37:36.646Z,38.99
2018-02-12T08:38:36.661Z,38.8
2018-02-12T08:39:36.668Z,38.92
2018-02-12T08:40:36.674Z,38.91
2018-02-12T08:41:36.724Z,38.94
2018-02-12T08:42:36.654Z,38.92
2018-02-12T08:43:36.664Z,38.95
2018-02-12T08:44:36.640Z,38.88
2018-02-12T08:45:36.685Z,38.87
2018-02-12T08:46:36.662Z,38.93
2018-02-12T08:47:36.711Z,38.93
2018-02-12T08:48:36.702Z,38.9
2018-02-12T08:49:36.657Z,38.86
2018-02-12T08:50:36.691Z,38.8
2018-02-12T08:51:36.648Z,38.82
2018-02-12T08:52:36.657Z,38.84
2018-02-12T08:53:36.662Z,38.96
2018-02-12T08:54:36.660Z,38.93
2018-02-12T08:55:36.675Z,39.08
2018-02-12T08:56:36.736Z,39.26
2018-02-12T08:57:36.660Z,39.06
2018-02-12T08:58:36.681Z,39.35
2018-02-12T08:59:36.645Z,39.57
2018-02-12T09:00:36.648Z,39.4
2018-02-12T09:01:36.677Z,39
2018-02-12T09:02:36.686Z,39.46
2018-02-12T09:03:36.685Z,39.5
2018-02-12T09:04:36.688Z,39.56
2018-02-12T09:05:36.735Z,39.73
2018-02-12T09:06:36.639Z,39.56
2018-02-12T09:07:36.655Z,39.47
2018-02-12T09:08:36.650Z,39.74
2018-02-12T09:09:36.645Z,39.47
2018-02-12T09:10:36.616Z,39.67
2018-02-12T09:11:36.641Z,39.63
2018-02-12T09:12:36.639Z,39.55
2018-02-12T09:13:36.643Z,39.49
2018-02-12T09:14:36.668Z,39.27
2018-02-12T09:15:36.652Z,39.91
2018-02-12T09:16:36.674Z,39.38
2018-02-12T09:17:36.665Z,39.76
2018-02-12T09:18:36.659Z,39.67
2018-02-12T09:19:36.667Z,39.6
2018-02-12T09:20:36.622Z,39.74
2018-02-12T09:21:36.639Z,39.8
2018-02-12T09:22:36.707Z,39.56
2018-02-12T09:23:36.705Z,39.9
2018-02-12T09:24:36.686Z,39.64
2018-02-12T09:25:36.670Z,40.24
2018-02-12T09:26:36.682Z,40.03
2018-02-12T09:27:36.641Z,40.14
2018-02-12T09:28:36.636Z,39.77
2018-02-12T09:29:36.641Z,39.74
2018-02-12T09:30:36.654Z,38.82
2018-02-12T09:31:36.660Z,38.71
2018-02-12T09:32:36.608Z,39.27
2018-02-12T09:33:36.667Z,39.12
2018-02-12T09:34:36.615Z,39.53
2018-02-12T09:35:36.641Z,39.32
2018-02-12T09:36:36.671Z,39.62
2018-02-12T09:37:36.656Z,39.53
2018-02-12T09:38:36.640Z,39.81
2018-02-12T09:39:36.605Z,39.76
2018-02-12T09:40:36.696Z,39.33
2018-02-12T09:41:36.750Z,39.3
2018-02-12T09:42:36.632Z,39.24
2018-02-12T09:43:36.616Z,39.31
2018-02-12T09:44:36.632Z,39.88
2018-02-12T09:45:36.628Z,39.9
2018-02-12T09:46:36.677Z,39.41
2018-02-12T09:47:36.715Z,39.57
2018-02-12T09:48:36.699Z,39.33
2018-02-12T09:49:36.613Z,39.85
2018-02-12T09:50:36.641Z,39.39
2018-02-12T09:51:36.624Z,39.69
2018-02-12T09:52:36.648Z,39.53
2018-02-12T09:53:36.626Z,39.74
2018-02-12T09:54:36.625Z,39.62
2018-02-12T09:55:36.634Z,39.69
2018-02-12T09:56:36.651Z,39.47
2018-02-12T09:57:36.608Z,39.42
2018-02-12T09:58:36.618Z,39.35
2018-02-12T09:59:36.642Z,39.49
2018-02-12T10:00:36.642Z,39.58
2018-02-12T10:01:36.680Z,39.75
2018-02-12T10:02:36.621Z,39.63
2018-02-12T10:03:36.603Z,39.37
2018-02-12T10:04:36.641Z,39.26
2018-02-12T10:05:36.627Z,39.54
2018-02-12T10:06:36.639Z,39.28
2018-02-12T10:07:36.623Z,39.27
2018-02-12T10:08:36.633Z,39.23
2018-02-12T10:09:36.620Z,39.19
2018-02-12T10:10:36.599Z,39.4
2018-02-12T10:11:36.692Z,39.11
2018-02-12T10:12:36.639Z,39.23
2018-02-12T10:13:36.644Z,39.19
2018-02-12T10:14:36.639Z,39.22
2018-02-12T10:15:36.633Z,39.25
2018-02-12T10:16:36.674Z,39.68
2018-02-12T10:17:36.660Z,39.56
2018-02-12T10:18:36.645Z,39.5
2018-02-12T10:19:36.623Z,39.36
2018-02-12T10:20:36.736Z,39.4
2018-02-12T10:21:36.675Z,39.38
2018-02-12T10:22:36.668Z,39.3
2018-02-12T10:23:36.652Z,39.5
2018-02-12T10:24:37.127Z,39.39
2018-02-12T10:25:36.622Z,39.36
2018-02-12T10:26:36.633Z,39.29
2018-02-12T10:27:36.667Z,39.3
2018-02-12T10:28:36.621Z,39.24
2018-02-12T10:29:36.677Z,39.17
2018-02-12T10:30:36.637Z,38.96
2018-02-12T10:31:36.615Z,38.26
2018-02-12T10:32:36.643Z,38.13
2018-02-12T10:33:36.611Z,38.26
2018-02-12T10:34:36.681Z,38.54
2018-02-12T10:35:36.648Z,38.88
2018-02-12T10:36:36.609Z,38.84
2018-02-12T10:37:36.723Z,38.98
2018-02-12T10:38:36.630Z,39.25
2018-02-12T10:39:36.620Z,38.92
2018-02-12T10:40:36.610Z,39.09
2018-02-12T10:41:36.661Z,38.93
2018-02-12T10:42:36.623Z,39.07
2018-02-12T10:43:36.624Z,39.06
2018-02-12T10:44:36.635Z,39.15
2018-02-12T10:45:36.614Z,39.34
2018-02-12T10:46:36.877Z,39.26
2018-02-12T10:47:36.618Z,39.18
2018-02-12T10:48:36.607Z,39.17
2018-02-12T10:49:36.616Z,39.14
2018-02-12T10:50:36.620Z,39.15
2018-02-12T10:51:36.636Z,39.31
2018-02-12T10:52:36.613Z,39.25
2018-02-12T10:53:36.624Z,39.42
2018-02-12T10:54:36.604Z,39.45
2018-02-12T10:55:36.649Z,39.38
2018-02-12T10:56:36.670Z,39.41
2018-02-12T10:57:36.729Z,38.48
2018-02-12T10:58:36.611Z,37.21
2018-02-12T10:59:36.586Z,36.57
2018-02-12T11:00:36.602Z,36.29
2018-02-12T11:01:36.617Z,39.21
2018-02-12T11:02:36.712Z,37.84
2018-02-12T11:03:36.616Z,37.88
2018-02-12T11:04:36.613Z,38.39
2018-02-12T11:05:36.628Z,38.65
2018-02-12T11:06:36.590Z,38.34
2018-02-12T11:07:36.650Z,38.01
2018-02-12T11:08:36.638Z,38.51
2018-02-12T11:09:36.631Z,38.61
2018-02-12T11:10:36.624Z,38.47
2018-02-12T11:11:36.635Z,38.56
2018-02-12T11:12:36.652Z,37.95
2018-02-12T11:13:36.632Z,38.46
2018-02-12T11:14:36.595Z,38.7
2018-02-12T11:15:36.631Z,38.28
2018-02-12T11:16:36.681Z,38.33
2018-02-12T11:17:36.926Z,38.15
2018-02-12T11:18:36.655Z,37.45
2018-02-12T11:19:36.719Z,36.35
2018-02-12T11:20:36.709Z,36.29
2018-02-12T11:21:36.648Z,37.54
2018-02-12T11:22:36.694Z,37.39
2018-02-12T11:23:36.716Z,37.6
2018-02-12T11:24:36.633Z,37.85
2018-02-12T11:25:36.632Z,37.83
2018-02-12T11:26:36.652Z,37.96
2018-02-12T11:27:36.634Z,37.91
2018-02-12T11:28:36.631Z,37.99
2018-02-12T11:29:36.630Z,37.31
2018-02-12T11:30:36.637Z,36.69
2018-02-12T11:31:36.616Z,36.32
2018-02-12T11:32:36.641Z,36.91
2018-02-12T11:33:36.606Z,37.1
2018-02-12T11:34:36.699Z,37.48
2018-02-12T11:35:36.687Z,37.79
2018-02-12T11:36:36.706Z,38.24
2018-02-12T11:37:36.659Z,38.48
2018-02-12T11:38:36.634Z,38.41
2018-02-12T11:39:36.602Z,38.21
2018-02-12T11:40:36.751Z,38.24
2018-02-12T11:41:36.621Z,38.47
2018-02-12T11:42:36.744Z,39.35
2018-02-12T11:43:36.641Z,38.69
2018-02-12T11:44:00.421Z,40.26
2018-02-12T11:45:05.026Z,38.4
2018-02-12T11:46:05.060Z,44.02
2018-02-12T12:08:45.537Z,37.64
2018-02-12T12:09:45.339Z,37.64
2018-02-12T12:10:45.373Z,37.7
2018-02-12T12:11:45.313Z,37.62
2018-02-12T12:12:45.326Z,37.98
2018-02-12T12:13:45.419Z,37.99
2018-02-12T12:14:48.662Z,38.13
2018-02-12T12:15:48.508Z,38.15
2018-02-12T12:16:54.187Z,38.15
2018-02-12T12:17:55.532Z,38.23
2018-02-12T12:18:57.012Z,38.29
2018-02-12T12:19:49.591Z,38.14
2018-02-12T12:20:49.434Z,38.18
2018-02-12T12:21:49.434Z,38.15
2018-02-12T12:22:49.437Z,38.27
2018-02-12T12:23:41.627Z,38.25
2018-02-12T12:24:41.451Z,38.45
2018-02-12T12:25:41.739Z,38.4
2018-02-12T12:26:54.267Z,38.26
2018-02-12T12:27:54.099Z,38.46
2018-02-12T12:28:55.203Z,38.39
2018-02-12T12:29:54.097Z,38.42
2018-02-12T12:30:54.100Z,38.49
2018-02-12T12:31:54.103Z,38.46
2018-02-12T12:32:54.093Z,38.42
2018-02-12T12:33:54.173Z,38.41
2018-02-12T12:34:03.510Z,38.58
2018-02-12T12:35:03.410Z,38.24
2018-02-12T12:36:03.335Z,38.44
2018-02-12T12:37:03.336Z,38.37
2018-02-12T12:38:03.374Z,38.35
2018-02-12T12:39:03.338Z,37.72
2018-02-12T12:40:03.364Z,37.85
2018-02-12T12:41:03.344Z,37.88
2018-02-12T12:42:03.341Z,38.04
2018-02-12T12:43:03.341Z,38.17
2018-02-12T12:44:03.354Z,38.28
2018-02-12T12:45:03.608Z,38.29
2018-02-12T12:46:03.338Z,38.46
2018-02-12T12:47:03.345Z,38.47
2018-02-12T12:48:03.349Z,38.36
2018-02-12T12:49:03.344Z,38.41
2018-02-12T12:50:03.387Z,38.4
2018-02-12T12:51:03.345Z,38.32
2018-02-12T12:52:03.354Z,38.43
2018-02-12T12:53:03.342Z,38.23
2018-02-12T12:54:03.338Z,38.25
2018-02-12T12:55:03.369Z,38.08
2018-02-12T12:56:03.402Z,38.26
2018-02-12T12:57:03.349Z,38.26
2018-02-12T12:58:03.352Z,38.33
2018-02-12T12:59:03.453Z,38.32
2018-02-12T13:00:03.370Z,38.38
2018-02-12T13:01:03.387Z,38.3
2018-02-12T13:02:03.346Z,38.2
2018-02-12T13:03:03.351Z,38.25
2018-02-12T13:04:03.392Z,38.38
2018-02-12T13:05:03.456Z,38.24
2018-02-12T13:06:03.372Z,38.35
2018-02-12T13:07:03.362Z,38.29
2018-02-12T13:07:34.745Z,38.25
2018-02-12T13:08:34.593Z,38.4
2018-02-12T13:09:34.584Z,38.29
2018-02-12T13:10:34.695Z,38.28
2018-02-12T13:11:34.582Z,38.44
2018-02-12T13:12:34.604Z,38.4
2018-02-12T13:13:34.650Z,38.5
2018-02-12T13:14:34.667Z,38.33
2018-02-12T13:15:34.602Z,38.47